Mudcat — WCY8255 — position and weather

sailwx.info

Track history (hours):
 
Tides and Currents Weather Stations Pressure Air Temp Water Temp Dewpoint Dewpoint Depression Visibility Wind Speed Wind Dir Waves Ship Positions

Mudcat

Owner: TAURUS MARINE, SAN FRANCISCO, CA. More information available from US FCC via Universal Licensing System and Coast Guard Vessel Documentation Center.

Last reported at 2016-Sep-30 22:32 UTC. Time now 2016-Oct-01 10:29 UTC.
Position N 47°38' W 122°15'.

Length 22 m; draft 2 m.

Type: Tug. MMSI: 366969750.

Date/timePositionNaut miles runAvg speedWind from/ knotsBaromVisibWave heightAir tempDewpointWater temp
2016-Sep-30 22:32N 47°38' W 122°15'1 0.5
2016-Sep-30 20:31N 47°38' W 122°16'3 1.1
2016-Sep-30 17:33N 47°42' W 122°15'4 3.6
2016-Sep-30 16:33N 47°45' W 122°15'7 2.2
2016-Sep-30 13:33N 47°39' W 122°17'1 0.1
2016-Sep-29 23:31N 47°38' W 122°15'0 0.1
2016-Sep-29 21:33N 47°38' W 122°15'0 0.2
2016-Sep-29 20:30N 47°38' W 122°15'1 0.9
2016-Sep-29 19:17N 47°39' W 122°17'1 0.5
2016-Sep-29 16:32N 47°38' W 122°15'0 0.0
2016-Sep-29 15:32N 47°38' W 122°15'1 0.5
2016-Sep-29 13:09N 47°39' W 122°17'0 0.0
2016-Sep-28 21:32N 47°39' W 122°17'1 0.6
2016-Sep-28 19:27N 47°38' W 122°15'1 0.5
2016-Sep-28 16:33N 47°39' W 122°17'0 0.1
2016-Sep-28 15:29N 47°39' W 122°17'3 0.2
2016-Sep-28 02:33N 47°39' W 122°21'2 2.0
2016-Sep-28 01:33N 47°40' W 122°24'0 0.1
2016-Sep-27 23:33N 47°40' W 122°24'5 1.2
2016-Sep-27 19:32N 47°39' W 122°17'0 0.0
2016-Sep-27 14:21N 47°39' W 122°16'1 1.5
2016-Sep-27 13:28N 47°38' W 122°15'1 0.1
2016-Sep-26 20:31N 47°38' W 122°16'0 0.1
2016-Sep-26 19:28N 47°38' W 122°16'0 0.1
2016-Sep-26 15:33N 47°38' W 122°16'0 0.1
2016-Sep-26 13:28N 47°39' W 122°16'3 0.1
2016-Sep-24 22:33N 47°39' W 122°21'2 2.0
2016-Sep-24 21:24N 47°40' W 122°23'6 3.2
2016-Sep-24 19:30N 47°38' W 122°15'0 0.1
2016-Sep-24 18:33N 47°39' W 122°15'1 1.4
2016-Sep-24 17:33N 47°39' W 122°17'1 1.5
2016-Sep-24 16:33N 47°39' W 122°15'0 0.0
2016-Sep-24 14:32N 47°39' W 122°15'4 1.8
2016-Sep-24 12:33N 47°39' W 122°20'0 0.0
2016-Sep-24 00:33N 47°39' W 122°20'3 0.6
2016-Sep-23 19:33N 47°38' W 122°16'6 3.1
2016-Sep-23 17:33N 47°45' W 122°16'2 1.7
2016-Sep-23 16:32N 47°43' W 122°16'4 4.4
2016-Sep-23 15:32N 47°38' W 122°16'0 0.1
2016-Sep-23 13:33N 47°38' W 122°16'3 0.3
2016-Sep-23 04:16N 47°39' W 122°20'4 5.1
2016-Sep-23 03:31N 47°38' W 122°15'0 0.3
2016-Sep-23 02:32N 47°38' W 122°15'1 0.8
2016-Sep-23 01:32N 47°38' W 122°16'0 0.0
2016-Sep-23 00:33N 47°38' W 122°16'0 0.0
2016-Sep-22 20:19N 47°38' W 122°16'4 0.6
2016-Sep-22 12:33N 47°43' W 122°16'5 0.4
2016-Sep-22 00:27N 47°39' W 122°20'3 3.3
2016-Sep-21 23:33N 47°39' W 122°16'2 2.4
2016-Sep-21 22:33N 47°41' W 122°15'3 0.9
2016-Sep-21 19:33N 47°38' W 122°15'5 1.8
2016-Sep-21 16:33N 47°44' W 122°16'  
Track history (hours):
 
Tides and Currents Weather Stations Pressure Air Temp Water Temp Dewpoint Dewpoint Depression Visibility Wind Speed Wind Dir Waves Ship Positions

Mudcat

Owner: TAURUS MARINE, SAN FRANCISCO, CA. More information available from US FCC via Universal Licensing System and Coast Guard Vessel Documentation Center.

Last reported at 2016-Sep-30 22:32 UTC. Time now 2016-Oct-01 10:29 UTC.
Position N 47°38' W 122°15'.

Length 22 m; draft 2 m.

Type: Tug. MMSI: 366969750.

Date/timePositionNaut miles runAvg speedWind from/ knotsBaromVisibWave heightAir tempDewpointWater temp
2016-Sep-30 22:32N 47°38' W 122°15'1 0.5
2016-Sep-30 20:31N 47°38' W 122°16'3 1.1
2016-Sep-30 17:33N 47°42' W 122°15'4 3.6
2016-Sep-30 16:33N 47°45' W 122°15'7 2.2
2016-Sep-30 13:33N 47°39' W 122°17'1 0.1
2016-Sep-29 23:31N 47°38' W 122°15'0 0.1
2016-Sep-29 21:33N 47°38' W 122°15'0 0.2
2016-Sep-29 20:30N 47°38' W 122°15'1 0.9
2016-Sep-29 19:17N 47°39' W 122°17'1 0.5
2016-Sep-29 16:32N 47°38' W 122°15'0 0.0
2016-Sep-29 15:32N 47°38' W 122°15'1 0.5
2016-Sep-29 13:09N 47°39' W 122°17'0 0.0
2016-Sep-28 21:32N 47°39' W 122°17'1 0.6
2016-Sep-28 19:27N 47°38' W 122°15'1 0.5
2016-Sep-28 16:33N 47°39' W 122°17'0 0.1
2016-Sep-28 15:29N 47°39' W 122°17'3 0.2
2016-Sep-28 02:33N 47°39' W 122°21'2 2.0
2016-Sep-28 01:33N 47°40' W 122°24'0 0.1
2016-Sep-27 23:33N 47°40' W 122°24'5 1.2
2016-Sep-27 19:32N 47°39' W 122°17'0 0.0
2016-Sep-27 14:21N 47°39' W 122°16'1 1.5
2016-Sep-27 13:28N 47°38' W 122°15'1 0.1
2016-Sep-26 20:31N 47°38' W 122°16'0 0.1
2016-Sep-26 19:28N 47°38' W 122°16'0 0.1
2016-Sep-26 15:33N 47°38' W 122°16'0 0.1
2016-Sep-26 13:28N 47°39' W 122°16'3 0.1
2016-Sep-24 22:33N 47°39' W 122°21'2 2.0
2016-Sep-24 21:24N 47°40' W 122°23'6 3.2
2016-Sep-24 19:30N 47°38' W 122°15'0 0.1
2016-Sep-24 18:33N 47°39' W 122°15'1 1.4
2016-Sep-24 17:33N 47°39' W 122°17'1 1.5
2016-Sep-24 16:33N 47°39' W 122°15'0 0.0
2016-Sep-24 14:32N 47°39' W 122°15'4 1.8
2016-Sep-24 12:33N 47°39' W 122°20'0 0.0
2016-Sep-24 00:33N 47°39' W 122°20'3 0.6
2016-Sep-23 19:33N 47°38' W 122°16'6 3.1
2016-Sep-23 17:33N 47°45' W 122°16'2 1.7
2016-Sep-23 16:32N 47°43' W 122°16'4 4.4
2016-Sep-23 15:32N 47°38' W 122°16'0 0.1
2016-Sep-23 13:33N 47°38' W 122°16'3 0.3
2016-Sep-23 04:16N 47°39' W 122°20'4 5.1
2016-Sep-23 03:31N 47°38' W 122°15'0 0.3
2016-Sep-23 02:32N 47°38' W 122°15'1 0.8
2016-Sep-23 01:32N 47°38' W 122°16'0 0.0
2016-Sep-23 00:33N 47°38' W 122°16'0 0.0
2016-Sep-22 20:19N 47°38' W 122°16'4 0.6
2016-Sep-22 12:33N 47°43' W 122°16'5 0.4
2016-Sep-22 00:27N 47°39' W 122°20'3 3.3
2016-Sep-21 23:33N 47°39' W 122°16'2 2.4
2016-Sep-21 22:33N 47°41' W 122°15'3 0.9
2016-Sep-21 19:33N 47°38' W 122°15'5 1.8
2016-Sep-21 16:33N 47°44' W 122°16'  

Dump ship's entire track history